アムステルダム/スキポール の空港の天気 - METARとTAF

スキポール空港(アムステルダム) ( EHAM / AMS ) - オランダ アムステルダム
飛行場実況気象(Metar)
観測時間02/17 15:25 CET (02/17 14:25 UTC)
風向・風速南南東 5m/s
視程10km以上
天気現象
なし
気温14℃
湿度55%
気圧1017hPa
METAREHAM 171425Z 16010KT CAVOK 14/05 Q1017 NOSIG
過去の天気等 Google飛行場航空写真 Wunderground天気予報

過去48時間のMETAR

飛行場予報(TAF)
発表時間: 2/17 12:17 CET (2/17 11:17 UTC)
予報対象時間: 17日13時 CET ~ 18日19時 CET
風向・風速南南東 6m/s
視程10km以上
なし
17日17時 CET ~ 17日20時 CET に徐々に
風向・風速南 3m/s
18日7時 CET ~ 18日10時 CET に 確率 30% で一時的に
視程4000m
天気現象もや
全天の4割程度の雲 雲底高度 460m
18日9時 CET ~ 18日12時 CET に徐々に
風向・風速南南西 6m/s
全天の4割程度の雲 雲底高度 550m
18日16時 CET ~ 18日19時 CET に徐々に
風向・風速不定 2m/s
TAF COR EHAM 171117Z 1712/1818 16011KT CAVOK
BECMG 1716/1719 19006KT
PROB30 TEMPO 1806/1809 4000 BR SCT015
BECMG 1808/1811 21012KT SCT018
BECMG 1815/1818 VRB03KT